Terminal Aerodrome Forecast
Issued by NWS

Home | Current Version | Previous Version | Text Only | Print | Product List | Glossary On
Versions: 1 2 3 4 5 6 7 8 9 10 11 12 13 14 15 16 17
000
FTUS43 KGRR 292342
TAFBTL
TAF
KBTL 292342Z 3000/3024 13006KT 4SM BR VCSH OVC035
      TEMPO 3000/3002 3SM -RA BR OVC015
     FM300200 VRB03KT 4SM -DZ BR OVC009
     FM300400 VRB03KT 2SM BR OVC009
     FM300800 VRB03KT 1/2SM FG OVC005
     FM301400 15005KT 4SM BR SCT005 OVC015
     FM301600 23006KT P6SM BKN025=

USA.gov is the U.S. government's official web portal to all federal, state and local government web resources and services.